»·PEaware :: N34PW KSNA-KAVX

N34PW :: KSNA-KAVX

FLIGHT INFORMATION

Flight Status: Arrived
Operator: Privately registered:
United States
More flights under this callsign
Pilot: Bashar D. (27147)
Aircraft: BEECH AIRCRAFT BONANZA
(BE36)
More flights by this aircraft type
Origin: KSNA John Wayne-Orange Co
United States
Destination: KAVX Catalina
United States
More flights between these airports :: More routes between these airports
Route: SLI V21 SXC
File this flight plan on PilotEdge
Remarks: I7 Rating
Altitude:
(Current/Filed)
4,000ft
Speed:
(Current/Filed)
120kts
Departed: 06-Feb-20 01:26 PM
Arrived: 06-Feb-20 02:33 PM
Distance/Time
Traveled:
32nm/1:07
Distance/Time
To Go:
Arrived

Flight Plot

Page will automatically refresh every two minutes.


Map Options




Map Legend


Flown Route
Filed Route
Departure Airport
Arrival Airport
Navaid (VOR, NDB)
Fix

Horizontal Profiles

Position Reports

Time Latitude Longitude Heading Altitude Ground
Speed
06-Feb-20 13:00 33.676614 -117.870367 209 60ft 0kts
06-Feb-20 13:01 33.676614 -117.870367 209 60ft 0kts
06-Feb-20 13:02 33.676614 -117.870367 209 60ft 0kts
06-Feb-20 13:03 33.676614 -117.870367 209 60ft 0kts
06-Feb-20 13:04 33.676614 -117.870367 209 60ft 0kts
06-Feb-20 13:05 33.676614 -117.870367 209 60ft 0kts
06-Feb-20 13:06 33.676614 -117.870367 209 60ft 0kts
06-Feb-20 13:07 33.676614 -117.870367 209 60ft 0kts
06-Feb-20 13:08 33.676614 -117.870367 209 60ft 0kts
06-Feb-20 13:09 33.676614 -117.870367 209 60ft 0kts
06-Feb-20 13:10 33.676614 -117.870367 209 60ft 0kts
06-Feb-20 13:11 33.676614 -117.870367 209 60ft 0kts
06-Feb-20 13:12 33.676614 -117.870367 209 60ft 0kts
06-Feb-20 13:13 33.676614 -117.870367 209 60ft 0kts
06-Feb-20 13:14 33.676614 -117.870367 209 60ft 0kts
06-Feb-20 13:15 33.676614 -117.870367 209 60ft 0kts
06-Feb-20 13:16 33.676614 -117.870367 209 60ft 0kts
06-Feb-20 13:17 33.676614 -117.870367 209 60ft 0kts
06-Feb-20 13:18 33.675012 -117.867479 127 60ft 18kts
06-Feb-20 13:21 33.676673 -117.870208 74 60ft 10kts
06-Feb-20 13:22 33.681372 -117.866613 120 60ft 21kts
06-Feb-20 13:23 33.681219 -117.866399 134 59ft 1kts
06-Feb-20 13:24 33.681019 -117.866069 127 60ft 25kts
06-Feb-20 13:25 33.673836 -117.869857 209 170ft 95kts
06-Feb-20 13:26 33.662161 -117.878837 222 167ft 123kts
06-Feb-20 13:27 33.653004 -117.893505 236 524ft 104kts
06-Feb-20 13:28 33.645467 -117.908863 234 554ft 122kts
06-Feb-20 13:29 33.641628 -117.915457 232 599ft 121kts
06-Feb-20 13:30 33.641628 -117.915457 232 599ft 121kts
06-Feb-20 13:31 33.641628 -117.915457 232 599ft 121kts
06-Feb-20 13:34 33.676700 -117.870558 209 60ft 0kts
06-Feb-20 13:35 33.676700 -117.870558 209 60ft 0kts
06-Feb-20 13:36 33.676846 -117.869574 27 60ft 11kts
06-Feb-20 13:37 33.679273 -117.868065 18 60ft 13kts
06-Feb-20 13:38 33.681067 -117.867119 39 60ft 0kts
06-Feb-20 13:39 33.681268 -117.866764 80 60ft 0kts
06-Feb-20 13:40 33.681268 -117.866764 80 60ft 0kts
06-Feb-20 13:41 33.681273 -117.866724 81 60ft 2kts
06-Feb-20 13:42 33.681258 -117.866501 106 60ft 0kts
06-Feb-20 13:43 33.680768 -117.865721 173 60ft 12kts
06-Feb-20 13:44 33.680553 -117.865755 199 60ft 3kts
06-Feb-20 13:45 33.675350 -117.869268 208 73ft 95kts
06-Feb-20 13:46 33.664143 -117.877490 216 278ft 115kts
06-Feb-20 13:47 33.654062 -117.892342 234 503ft 149kts
06-Feb-20 13:48 33.642948 -117.910716 232 827ft 157kts
06-Feb-20 13:49 33.631456 -117.929173 232 1178ft 160kts
06-Feb-20 13:50 33.619626 -117.948114 232 1636ft 153kts
06-Feb-20 13:51 33.608501 -117.965955 232 2160ft 147kts
06-Feb-20 13:52 33.597984 -117.982836 232 2814ft 134kts
06-Feb-20 13:53 33.587809 -117.999167 232 3170ft 145kts
06-Feb-20 13:54 33.577160 -118.016229 232 3479ft 151kts
06-Feb-20 13:55 33.566308 -118.033584 232 3769ft 154kts
06-Feb-20 13:56 33.554797 -118.051783 230 3808ft 168kts
06-Feb-20 13:57 33.542283 -118.071804 232 3806ft 175kts
06-Feb-20 13:58 33.529432 -118.092261 232 3804ft 178kts
06-Feb-20 13:59 33.516332 -118.113072 232 3803ft 179kts
06-Feb-20 14:00 33.503227 -118.133877 232 3803ft 180kts
06-Feb-20 14:01 33.490154 -118.154629 232 3803ft 180kts
06-Feb-20 14:02 33.477125 -118.175309 232 3803ft 180kts
06-Feb-20 14:03 33.464144 -118.195911 232 3803ft 180kts
06-Feb-20 14:04 33.453409 -118.212944 232 3803ft 180kts
06-Feb-20 14:05 33.440578 -118.233301 232 3803ft 180kts
06-Feb-20 14:06 33.425474 -118.257262 232 3803ft 180kts
06-Feb-20 14:07 33.410473 -118.281061 232 3803ft 180kts
06-Feb-20 14:08 33.395698 -118.305178 238 3799ft 181kts
06-Feb-20 14:09 33.390568 -118.333813 260 3805ft 181kts
06-Feb-20 14:11 33.386872 -118.362703 260 3803ft 181kts
06-Feb-20 14:12 33.384288 -118.391684 281 3778ft 184kts
06-Feb-20 14:13 33.398127 -118.414815 345 3792ft 183kts
06-Feb-20 14:14 33.423337 -118.412012 8 3804ft 183kts
06-Feb-20 14:15 33.446515 -118.407551 10 3803ft 183kts
06-Feb-20 14:16 33.467401 -118.403583 9 3803ft 184kts
06-Feb-20 14:17 33.495532 -118.399072 7 3803ft 184kts
06-Feb-20 14:18 33.525211 -118.396147 348 3777ft 185kts
06-Feb-20 14:19 33.547061 -118.423327 317 3813ft 182kts
06-Feb-20 14:20 33.572436 -118.421315 57 3792ft 181kts
06-Feb-20 14:21 33.562595 -118.393066 168 3794ft 177kts
06-Feb-20 14:22 33.531876 -118.397971 189 3804ft 178kts
06-Feb-20 14:23 33.501104 -118.403513 188 3803ft 178kts
06-Feb-20 14:24 33.470231 -118.408365 185 3803ft 178kts
06-Feb-20 14:25 33.439202 -118.411090 186 3803ft 178kts
06-Feb-20 14:26 33.412509 -118.414851 187 3430ft 161kts
06-Feb-20 14:27 33.391475 -118.405166 137 3256ft 144kts
06-Feb-20 14:28 33.391348 -118.381411 54 2926ft 151kts
06-Feb-20 14:28 33.403992 -118.364397 29 2603ft 149kts
06-Feb-20 14:30 33.424512 -118.371708 306 2589ft 115kts
06-Feb-20 14:31 33.415969 -118.396041 231 2462ft 78kts
06-Feb-20 14:31 33.406719 -118.412970 228 1517ft 67kts
06-Feb-20 14:32 33.402637 -118.419720 246 1553ft 5kts
06-Feb-20 14:33 33.403984 -118.417488 74 1555ft 16kts
06-Feb-20 14:34 33.403573 -118.415825 81 1550ft 0kts
06-Feb-20 14:35 33.403588 -118.415702 82 1549ft 4kts
06-Feb-20 14:37 33.403597 -118.415613 81 1549ft 0kts

Navigation Log

Ident Type
Flight plan parsing failed, navigation log unavailable